Alliance, NE

1:56 AM MDT on March 29, 2015 (GMT -0600)
Alliance Municipal | | Change Station
CLOSE
Current Station
Airport
Location: Alliance,
Elevation: 3930 ft
Nearby Weather Stations
Active Advisory: Wind Advisory Active Notice: Record Report

Elev 3930 ft 42.06 °N, 102.80 °W | Updated 1 hour ago

Clear
Clear
52 °F
Feels Like 52 °F
N
12
Wind Variable Wind from NNW

Today
High -- | Low -- °F
--% Chance of Precip.
Yesterday
High -- | Low -- °F
Precip. -- in
6:39 AM 7:13 PM
Waxing Gibbous, 69% visible
Pressure 29.87 in
Visibility 10.0 miles
Clouds Clear
Dew Point 25 °F
Humidity 35%
Rainfall 0.00 in
Snow Depth Not available.
UV 0 out of 12
Pollen 9.10 out of 12
Air Quality Not available.
Flu Activity Not available.
METAR KAIA 290653Z AUTO 34010KT 10SM CLR 11/M04 A2997 RMK AO2 PK WND 33026/0605 SLP114 T01111039 402721033

More Conditions Fewer Conditions

Pressure 29.87 in
Visibility 10.0 miles
Clouds Clear
Dew Point 25 °F
Humidity 35%
Rainfall 0.00 in
Snow Depth Not available.
UV 0 out of 12
Pollen 9.10 out of 12
Air Quality Not available.
Flu Activity Not available.
METAR KAIA 290653Z AUTO 34010KT 10SM CLR 11/M04 A2997 RMK AO2 PK WND 33026/0605 SLP114 T01111039 402721033

More Conditions Fewer Conditions

10-Day Weather Forecast

Almanac

Astronomy

Mar. 29, 2015 Rise Set
Actual Time
Civil Twilight
Nautical Twilight
Astronomical Twilight
Moon
Length of Visible Light
Length of Day
Tomorrow will be .
, % of the Moon is Illuminated

Today's Extremes

State Highs State Lows

Community

WunderPhotos

Upload Photos

1,809,187 photos uploaded!

WunderBlogs® & News

Nearby

Air Quality

  Air Quality AQ Index Pollutant
Not available.

Snow Depth

Station Depth Elevation

Earthquake Activity

City Distance Mag. Time & Date
Minimum magnitude displayed is 2.5.

Coastal Water Temperatures

Place Temperature

Stations

Nearby Weather Stations

Station Location Temp. Windchill Dew Point Humidity Wind Precip. Elev Updated Type
                   
Wind Advisory
Statement as of 10:40 PM MDT on March 28, 2015

... Wind Advisory remains in effect until 6 am MDT Sunday...

* timing... midnight through 6am Sunday morning.

* Winds... becoming northwest 25 to 35 mph with gusts to 50 mph
after midnight. The strongest winds will occur along the Pine
Ridge.

* Impacts... mainly to transportation. Difficult travel for light
weight and high profile vehicles... especially along west-to-
east oriented roads.

Precautionary/preparedness actions...

A Wind Advisory means that winds of 35 mph are expected. Winds
this strong can make driving difficult... especially for high
profile vehicles. Use extra caution.